Terminal Aerodrome Forecast
Issued by NWS

Home | Current Version | Previous Version | Text Only | Print | Product List | Glossary On
Versions: 1 2 3 4 5 6 7 8 9 10 11 12 13 14 15 16 17 18 19
000
FTUS45 KGJT 251728
TAFEGE
TAF
KEGE 251728Z 2518/2618 22012KT P6SM SCT040 BKN070
     FM251900 23013G21KT P6SM SCT040 BKN200
     FM260200 12007KT P6SM FEW080 SCT250
     FM260400 VRB03KT P6SM FEW090 SCT250=

USA.gov is the U.S. government's official web portal to all federal, state and local government web resources and services.